PILOTS ONLINE: 301    ATC ONLINE: 34

KSMO - Santa Monica Municipal Airport

Location

City Santa Monica
Country  United States
Latitude 34° 0' 56" N
Longitude 118° 27' 3" W
Elevation 177 ft
Type Small Airport

Runways

03/21 4973 ft / 150 ft

Weather

METAR
2014/07/23 08:51
KSMO 230851Z AUTO 00000KT 10SM CLR 21/16 A3000 RMK AO2 SLP155 T02110156 58002
TAF
No TAF available

Outbound flights

Inbound flights